sensor_id;sensor_type;location;lat;lon;timestamp;temperature;humidity
9939;DHT22;5008;50.656;7.188;2023-06-10T03:41:27;16.20;99.90
9939;DHT22;5008;50.656;7.188;2023-06-10T03:43:57;16.20;99.90
9939;DHT22;5008;50.656;7.188;2023-06-10T03:46:46;16.20;99.90
9939;DHT22;5008;50.656;7.188;2023-06-10T03:49:26;16.20;99.90
9939;DHT22;5008;50.656;7.188;2023-06-10T03:51:55;16.20;99.90
9939;DHT22;5008;50.656;7.188;2023-06-10T03:54:22;16.20;99.90
9939;DHT22;5008;50.656;7.188;2023-06-10T03:56:53;16.30;99.90
9939;DHT22;5008;50.656;7.188;2023-06-10T03:59:20;16.20;99.90
9939;DHT22;5008;50.656;7.188;2023-06-10T04:01:47;16.30;99.90
9939;DHT22;5008;50.656;7.188;2023-06-10T04:04:14;16.30;99.90
9939;DHT22;5008;50.656;7.188;2023-06-10T04:06:42;16.30;99.90
9939;DHT22;5008;50.656;7.188;2023-06-10T04:09:13;16.20;99.90
9939;DHT22;5008;50.656;7.188;2023-06-10T04:11:40;16.20;99.90
9939;DHT22;5008;50.656;7.188;2023-06-10T04:14:08;16.20;99.90
9939;DHT22;5008;50.656;7.188;2023-06-10T04:16:35;16.20;99.90
9939;DHT22;5008;50.656;7.188;2023-06-10T04:19:05;16.20;99.90
9939;DHT22;5008;50.656;7.188;2023-06-10T04:21:31;16.10;99.90
9939;DHT22;5008;50.656;7.188;2023-06-10T04:23:59;16.20;99.90
9939;DHT22;5008;50.656;7.188;2023-06-10T04:26:26;16.20;99.90
9939;DHT22;5008;50.656;7.188;2023-06-10T04:28:53;16.30;99.90
9939;DHT22;5008;50.656;7.188;2023-06-10T04:31:21;16.20;99.90
9939;DHT22;5008;50.656;7.188;2023-06-10T04:33:48;16.30;99.90
9939;DHT22;5008;50.656;7.188;2023-06-10T04:36:15;16.20;99.90
9939;DHT22;5008;50.656;7.188;2023-06-10T04:38:42;16.30;99.90
9939;DHT22;5008;50.656;7.188;2023-06-10T04:41:09;16.30;99.90
9939;DHT22;5008;50.656;7.188;2023-06-10T04:43:36;16.30;99.90
9939;DHT22;5008;50.656;7.188;2023-06-10T04:46:03;16.40;99.90
9939;DHT22;5008;50.656;7.188;2023-06-10T04:48:32;16.40;99.90
9939;DHT22;5008;50.656;7.188;2023-06-10T04:51:06;16.50;99.90
9939;DHT22;5008;50.656;7.188;2023-06-10T04:53:33;16.60;99.90
9939;DHT22;5008;50.656;7.188;2023-06-10T04:56:01;16.70;99.90
9939;DHT22;5008;50.656;7.188;2023-06-10T04:58:28;16.60;99.90
9939;DHT22;5008;50.656;7.188;2023-06-10T05:00:55;16.70;99.90
9939;DHT22;5008;50.656;7.188;2023-06-10T05:03:22;16.80;99.90
9939;DHT22;5008;50.656;7.188;2023-06-10T05:05:51;16.80;99.90
9939;DHT22;5008;50.656;7.188;2023-06-10T05:08:18;16.90;99.90
9939;DHT22;5008;50.656;7.188;2023-06-10T05:10:45;16.90;99.90
9939;DHT22;5008;50.656;7.188;2023-06-10T05:13:12;16.90;99.90
9939;DHT22;5008;50.656;7.188;2023-06-10T05:15:43;17.00;99.90
9939;DHT22;5008;50.656;7.188;2023-06-10T05:18:12;17.10;99.90
9939;DHT22;5008;50.656;7.188;2023-06-10T05:20:41;17.10;99.90
9939;DHT22;5008;50.656;7.188;2023-06-10T05:23:13;17.20;99.90
9939;DHT22;5008;50.656;7.188;2023-06-10T05:25:41;17.30;99.90
9939;DHT22;5008;50.656;7.188;2023-06-10T05:28:09;17.40;99.90
9939;DHT22;5008;50.656;7.188;2023-06-10T05:30:37;17.40;99.90
9939;DHT22;5008;50.656;7.188;2023-06-10T05:33:04;17.50;99.90
9939;DHT22;5008;50.656;7.188;2023-06-10T05:35:39;17.60;99.90
9939;DHT22;5008;50.656;7.188;2023-06-10T05:38:09;17.70;99.90
9939;DHT22;5008;50.656;7.188;2023-06-10T05:40:48;17.70;99.90
9939;DHT22;5008;50.656;7.188;2023-06-10T05:43:16;17.80;99.90
9939;DHT22;5008;50.656;7.188;2023-06-10T05:45:44;17.90;99.90
9939;DHT22;5008;50.656;7.188;2023-06-10T05:48:13;17.90;99.90
9939;DHT22;5008;50.656;7.188;2023-06-10T05:50:43;18.10;99.90
9939;DHT22;5008;50.656;7.188;2023-06-10T05:53:14;18.20;99.90
9939;DHT22;5008;50.656;7.188;2023-06-10T05:55:46;18.30;99.90
9939;DHT22;5008;50.656;7.188;2023-06-10T05:58:15;18.40;99.90
9939;DHT22;5008;50.656;7.188;2023-06-10T06:00:43;18.50;99.90
9939;DHT22;5008;50.656;7.188;2023-06-10T06:03:17;18.50;99.90
9939;DHT22;5008;50.656;7.188;2023-06-10T06:05:51;18.60;99.90
9939;DHT22;5008;50.656;7.188;2023-06-10T06:08:29;18.70;99.90
9939;DHT22;5008;50.656;7.188;2023-06-10T06:11:00;18.80;99.90
9939;DHT22;5008;50.656;7.188;2023-06-10T06:13:29;18.90;99.90
9939;DHT22;5008;50.656;7.188;2023-06-10T06:15:59;19.00;99.90
9939;DHT22;5008;50.656;7.188;2023-06-10T06:18:26;19.10;99.90
9939;DHT22;5008;50.656;7.188;2023-06-10T06:20:53;19.20;99.90
9939;DHT22;5008;50.656;7.188;2023-06-10T06:23:20;19.30;99.90
9939;DHT22;5008;50.656;7.188;2023-06-10T06:25:47;19.30;99.90
9939;DHT22;5008;50.656;7.188;2023-06-10T06:28:15;19.50;99.90
9939;DHT22;5008;50.656;7.188;2023-06-10T06:30:44;19.50;99.90
9939;DHT22;5008;50.656;7.188;2023-06-10T06:33:11;19.60;99.90
9939;DHT22;5008;50.656;7.188;2023-06-10T06:35:38;19.70;99.90
9939;DHT22;5008;50.656;7.188;2023-06-10T06:38:08;19.70;99.90
9939;DHT22;5008;50.656;7.188;2023-06-10T06:40:36;19.80;99.90
9939;DHT22;5008;50.656;7.188;2023-06-10T06:43:05;19.90;99.90
9939;DHT22;5008;50.656;7.188;2023-06-10T06:45:33;20.00;99.90
9939;DHT22;5008;50.656;7.188;2023-06-10T06:48:00;20.10;99.90
9939;DHT22;5008;50.656;7.188;2023-06-10T06:50:27;20.20;99.90
9939;DHT22;5008;50.656;7.188;2023-06-10T06:52:54;20.30;99.90
9939;DHT22;5008;50.656;7.188;2023-06-10T06:55:21;20.40;99.90
9939;DHT22;5008;50.656;7.188;2023-06-10T06:57:48;20.40;99.90
9939;DHT22;5008;50.656;7.188;2023-06-10T07:00:16;20.50;99.90
9939;DHT22;5008;50.656;7.188;2023-06-10T07:02:44;20.50;99.90
9939;DHT22;5008;50.656;7.188;2023-06-10T07:05:12;20.50;99.90
9939;DHT22;5008;50.656;7.188;2023-06-10T07:07:39;20.60;99.90
9939;DHT22;5008;50.656;7.188;2023-06-10T07:10:07;20.70;99.90
9939;DHT22;5008;50.656;7.188;2023-06-10T07:12:36;20.80;99.90
9939;DHT22;5008;50.656;7.188;2023-06-10T07:15:04;20.90;99.90
9939;DHT22;5008;50.656;7.188;2023-06-10T07:17:31;21.00;99.90
9939;DHT22;5008;50.656;7.188;2023-06-10T07:19:59;21.00;99.90
9939;DHT22;5008;50.656;7.188;2023-06-10T07:22:26;21.20;99.90
9939;DHT22;5008;50.656;7.188;2023-06-10T07:24:53;21.20;99.90
9939;DHT22;5008;50.656;7.188;2023-06-10T07:27:21;21.30;99.90
9939;DHT22;5008;50.656;7.188;2023-06-10T07:29:47;21.30;99.90
9939;DHT22;5008;50.656;7.188;2023-06-10T07:32:14;21.30;99.90
9939;DHT22;5008;50.656;7.188;2023-06-10T07:34:41;21.30;99.90
9939;DHT22;5008;50.656;7.188;2023-06-10T07:37:25;21.40;99.90
9939;DHT22;5008;50.656;7.188;2023-06-10T07:39:52;21.60;99.90
9939;DHT22;5008;50.656;7.188;2023-06-10T07:42:19;21.60;99.90
9939;DHT22;5008;50.656;7.188;2023-06-10T07:44:47;21.70;99.90
9939;DHT22;5008;50.656;7.188;2023-06-10T07:47:15;21.70;99.90
9939;DHT22;5008;50.656;7.188;2023-06-10T07:49:42;21.80;99.90
9939;DHT22;5008;50.656;7.188;2023-06-10T07:52:09;21.80;99.90
9939;DHT22;5008;50.656;7.188;2023-06-10T07:54:41;21.90;99.90
9939;DHT22;5008;50.656;7.188;2023-06-10T07:57:19;21.90;99.90
9939;DHT22;5008;50.656;7.188;2023-06-10T07:59:46;22.00;99.90
9939;DHT22;5008;50.656;7.188;2023-06-10T08:02:12;22.10;99.90
9939;DHT22;5008;50.656;7.188;2023-06-10T08:04:41;22.10;99.90
9939;DHT22;5008;50.656;7.188;2023-06-10T08:07:08;22.00;99.90
9939;DHT22;5008;50.656;7.188;2023-06-10T08:09:35;22.10;99.90
9939;DHT22;5008;50.656;7.188;2023-06-10T08:12:05;22.10;99.90
9939;DHT22;5008;50.656;7.188;2023-06-10T08:14:32;22.10;99.90
9939;DHT22;5008;50.656;7.188;2023-06-10T08:16:59;22.20;99.90
9939;DHT22;5008;50.656;7.188;2023-06-10T08:19:26;22.40;99.90
9939;DHT22;5008;50.656;7.188;2023-06-10T08:21:53;22.60;99.90
9939;DHT22;5008;50.656;7.188;2023-06-10T08:24:20;22.60;99.90
9939;DHT22;5008;50.656;7.188;2023-06-10T08:26:47;22.50;99.90
9939;DHT22;5008;50.656;7.188;2023-06-10T08:29:15;22.50;99.90
9939;DHT22;5008;50.656;7.188;2023-06-10T08:31:45;22.40;99.90
9939;DHT22;5008;50.656;7.188;2023-06-10T08:34:12;22.40;99.90
9939;DHT22;5008;50.656;7.188;2023-06-10T08:36:41;22.40;99.90
9939;DHT22;5008;50.656;7.188;2023-06-10T08:39:08;22.50;99.90
9939;DHT22;5008;50.656;7.188;2023-06-10T08:41:39;22.60;99.90
9939;DHT22;5008;50.656;7.188;2023-06-10T08:44:17;22.60;99.90
9939;DHT22;5008;50.656;7.188;2023-06-10T08:46:48;22.70;99.90
9939;DHT22;5008;50.656;7.188;2023-06-10T08:49:19;22.80;99.90
9939;DHT22;5008;50.656;7.188;2023-06-10T08:51:48;22.90;99.90
9939;DHT22;5008;50.656;7.188;2023-06-10T08:54:28;23.10;99.90
9939;DHT22;5008;50.656;7.188;2023-06-10T08:56:57;23.20;99.90
9939;DHT22;5008;50.656;7.188;2023-06-10T08:59:27;23.20;99.90
9939;DHT22;5008;50.656;7.188;2023-06-10T09:01:54;23.40;99.90
9939;DHT22;5008;50.656;7.188;2023-06-10T09:04:21;23.40;99.90
9939;DHT22;5008;50.656;7.188;2023-06-10T09:06:51;23.40;99.90
9939;DHT22;5008;50.656;7.188;2023-06-10T09:09:19;23.40;99.90
9939;DHT22;5008;50.656;7.188;2023-06-10T09:11:48;23.40;99.90
9939;DHT22;5008;50.656;7.188;2023-06-10T09:14:15;23.40;99.90
9939;DHT22;5008;50.656;7.188;2023-06-10T09:16:43;23.40;99.90
9939;DHT22;5008;50.656;7.188;2023-06-10T09:19:12;23.50;99.90
9939;DHT22;5008;50.656;7.188;2023-06-10T09:21:39;23.40;99.90
9939;DHT22;5008;50.656;7.188;2023-06-10T09:24:06;23.40;99.90
9939;DHT22;5008;50.656;7.188;2023-06-10T09:26:33;23.60;99.90
9939;DHT22;5008;50.656;7.188;2023-06-10T09:29:03;23.70;99.90
9939;DHT22;5008;50.656;7.188;2023-06-10T09:31:31;23.70;99.90
9939;DHT22;5008;50.656;7.188;2023-06-10T09:34:07;23.70;99.90
9939;DHT22;5008;50.656;7.188;2023-06-10T09:36:35;23.50;99.90
9939;DHT22;5008;50.656;7.188;2023-06-10T09:39:02;23.50;99.90
9939;DHT22;5008;50.656;7.188;2023-06-10T09:41:32;23.50;99.90
9939;DHT22;5008;50.656;7.188;2023-06-10T09:44:00;23.70;99.90
9939;DHT22;5008;50.656;7.188;2023-06-10T09:46:31;24.00;99.90
9939;DHT22;5008;50.656;7.188;2023-06-10T09:48:58;24.10;99.90
9939;DHT22;5008;50.656;7.188;2023-06-10T09:51:27;24.20;99.90
9939;DHT22;5008;50.656;7.188;2023-06-10T09:53:54;24.10;99.90
9939;DHT22;5008;50.656;7.188;2023-06-10T09:56:21;24.20;99.90
9939;DHT22;5008;50.656;7.188;2023-06-10T09:58:58;24.00;99.90
9939;DHT22;5008;50.656;7.188;2023-06-10T10:01:25;24.30;99.90
9939;DHT22;5008;50.656;7.188;2023-06-10T10:03:52;24.40;99.90
9939;DHT22;5008;50.656;7.188;2023-06-10T10:06:20;24.50;99.90
9939;DHT22;5008;50.656;7.188;2023-06-10T10:08:49;24.60;99.90
9939;DHT22;5008;50.656;7.188;2023-06-10T10:11:18;24.40;99.90
9939;DHT22;5008;50.656;7.188;2023-06-10T10:13:48;24.50;99.90
9939;DHT22;5008;50.656;7.188;2023-06-10T10:16:16;24.50;99.90
9939;DHT22;5008;50.656;7.188;2023-06-10T10:18:49;24.60;99.90
9939;DHT22;5008;50.656;7.188;2023-06-10T10:21:21;24.70;99.90
9939;DHT22;5008;50.656;7.188;2023-06-10T10:23:53;24.70;99.90
9939;DHT22;5008;50.656;7.188;2023-06-10T10:26:25;24.70;99.90
9939;DHT22;5008;50.656;7.188;2023-06-10T10:29:03;24.70;99.90
9939;DHT22;5008;50.656;7.188;2023-06-10T10:31:32;25.00;99.90
9939;DHT22;5008;50.656;7.188;2023-06-10T10:34:04;24.80;99.90
9939;DHT22;5008;50.656;7.188;2023-06-10T10:36:33;24.90;99.90
9939;DHT22;5008;50.656;7.188;2023-06-10T10:39:03;25.00;99.90
9939;DHT22;5008;50.656;7.188;2023-06-10T10:41:31;25.00;99.90
9939;DHT22;5008;50.656;7.188;2023-06-10T10:43:59;24.90;99.90
9939;DHT22;5008;50.656;7.188;2023-06-10T10:46:26;24.90;99.90
9939;DHT22;5008;50.656;7.188;2023-06-10T10:48:54;24.90;99.90
9939;DHT22;5008;50.656;7.188;2023-06-10T10:51:22;25.10;99.90
9939;DHT22;5008;50.656;7.188;2023-06-10T10:54:17;25.30;99.90
9939;DHT22;5008;50.656;7.188;2023-06-10T10:57:16;25.20;99.90
9939;DHT22;5008;50.656;7.188;2023-06-10T10:59:54;25.20;99.90
9939;DHT22;5008;50.656;7.188;2023-06-10T11:02:40;25.30;99.90
9939;DHT22;5008;50.656;7.188;2023-06-10T11:05:09;25.50;99.90
9939;DHT22;5008;50.656;7.188;2023-06-10T11:07:37;25.60;99.90
9939;DHT22;5008;50.656;7.188;2023-06-10T11:10:08;25.80;97.90
9939;DHT22;5008;50.656;7.188;2023-06-10T11:12:49;25.90;98.50
9939;DHT22;5008;50.656;7.188;2023-06-10T11:15:22;26.00;98.70
9939;DHT22;5008;50.656;7.188;2023-06-10T11:18:23;26.20;98.90
9939;DHT22;5008;50.656;7.188;2023-06-10T11:21:07;26.20;99.10
9939;DHT22;5008;50.656;7.188;2023-06-10T11:23:39;26.40;98.10
9939;DHT22;5008;50.656;7.188;2023-06-10T11:26:30;26.70;96.60
9939;DHT22;5008;50.656;7.188;2023-06-10T11:29:08;26.90;96.80
9939;DHT22;5008;50.656;7.188;2023-06-10T11:31:42;26.90;97.90
9939;DHT22;5008;50.656;7.188;2023-06-10T11:34:10;27.00;96.40
9939;DHT22;5008;50.656;7.188;2023-06-10T11:36:38;27.30;94.40
9939;DHT22;5008;50.656;7.188;2023-06-10T11:39:08;27.60;95.70
9939;DHT22;5008;50.656;7.188;2023-06-10T11:41:37;27.60;95.00
9939;DHT22;5008;50.656;7.188;2023-06-10T11:44:08;27.60;96.90
9939;DHT22;5008;50.656;7.188;2023-06-10T11:46:36;27.40;95.50
9939;DHT22;5008;50.656;7.188;2023-06-10T11:49:04;27.70;93.60
9939;DHT22;5008;50.656;7.188;2023-06-10T11:51:33;27.70;95.40
9939;DHT22;5008;50.656;7.188;2023-06-10T11:54:03;27.00;94.80
9939;DHT22;5008;50.656;7.188;2023-06-10T11:56:31;26.50;94.00
9939;DHT22;5008;50.656;7.188;2023-06-10T11:59:01;26.30;95.60
9939;DHT22;5008;50.656;7.188;2023-06-10T12:01:30;26.70;94.30
9939;DHT22;5008;50.656;7.188;2023-06-10T12:03:59;26.90;95.40
9939;DHT22;5008;50.656;7.188;2023-06-10T12:06:26;26.60;95.00
9939;DHT22;5008;50.656;7.188;2023-06-10T12:08:54;26.70;92.70
9939;DHT22;5008;50.656;7.188;2023-06-10T12:11:21;26.90;92.80
9939;DHT22;5008;50.656;7.188;2023-06-10T12:13:49;27.20;93.80
9939;DHT22;5008;50.656;7.188;2023-06-10T12:16:20;27.40;93.90
9939;DHT22;5008;50.656;7.188;2023-06-10T12:18:47;27.60;92.30
9939;DHT22;5008;50.656;7.188;2023-06-10T12:21:19;27.70;90.70
9939;DHT22;5008;50.656;7.188;2023-06-10T12:24:04;27.80;91.90
9939;DHT22;5008;50.656;7.188;2023-06-10T12:26:41;27.70;91.80
9939;DHT22;5008;50.656;7.188;2023-06-10T12:29:20;27.60;91.40
9939;DHT22;5008;50.656;7.188;2023-06-10T12:32:00;27.60;92.40
9939;DHT22;5008;50.656;7.188;2023-06-10T12:34:33;27.70;91.70
9939;DHT22;5008;50.656;7.188;2023-06-10T12:37:01;27.80;90.80
9939;DHT22;5008;50.656;7.188;2023-06-10T12:39:28;27.90;90.30
9939;DHT22;5008;50.656;7.188;2023-06-10T12:41:55;28.00;90.70
9939;DHT22;5008;50.656;7.188;2023-06-10T12:44:29;27.80;91.30
9939;DHT22;5008;50.656;7.188;2023-06-10T12:46:56;28.00;90.90
9939;DHT22;5008;50.656;7.188;2023-06-10T12:49:25;28.00;91.80
9939;DHT22;5008;50.656;7.188;2023-06-10T12:51:53;28.10;88.40
9939;DHT22;5008;50.656;7.188;2023-06-10T12:54:20;28.00;92.00
9939;DHT22;5008;50.656;7.188;2023-06-10T12:56:49;28.10;91.50
9939;DHT22;5008;50.656;7.188;2023-06-10T12:59:26;27.90;92.90
9939;DHT22;5008;50.656;7.188;2023-06-10T13:01:53;28.10;91.60
9939;DHT22;5008;50.656;7.188;2023-06-10T13:04:20;28.30;91.10
9939;DHT22;5008;50.656;7.188;2023-06-10T13:06:49;28.10;92.80
9939;DHT22;5008;50.656;7.188;2023-06-10T13:09:18;28.30;90.80
9939;DHT22;5008;50.656;7.188;2023-06-10T13:11:45;28.10;91.00
9939;DHT22;5008;50.656;7.188;2023-06-10T13:14:12;27.80;91.90
9939;DHT22;5008;50.656;7.188;2023-06-10T13:16:39;27.90;92.30
9939;DHT22;5008;50.656;7.188;2023-06-10T13:19:06;28.10;92.30
9939;DHT22;5008;50.656;7.188;2023-06-10T13:21:33;28.20;91.50
9939;DHT22;5008;50.656;7.188;2023-06-10T13:24:02;28.60;87.70
9939;DHT22;5008;50.656;7.188;2023-06-10T13:26:48;29.30;89.70
9939;DHT22;5008;50.656;7.188;2023-06-10T13:29:14;30.40;90.60
9939;DHT22;5008;50.656;7.188;2023-06-10T13:31:41;31.10;89.90
9939;DHT22;5008;50.656;7.188;2023-06-10T13:34:08;31.30;85.60
9939;DHT22;5008;50.656;7.188;2023-06-10T13:36:36;31.50;83.90
9939;DHT22;5008;50.656;7.188;2023-06-10T13:39:04;31.60;85.00
9939;DHT22;5008;50.656;7.188;2023-06-10T13:41:31;31.40;82.50
9939;DHT22;5008;50.656;7.188;2023-06-10T13:43:58;31.20;86.00
9939;DHT22;5008;50.656;7.188;2023-06-10T13:46:25;30.60;84.20
9939;DHT22;5008;50.656;7.188;2023-06-10T13:48:52;30.40;79.30
9939;DHT22;5008;50.656;7.188;2023-06-10T13:51:18;29.80;86.50
9939;DHT22;5008;50.656;7.188;2023-06-10T13:53:45;29.00;84.50
9939;DHT22;5008;50.656;7.188;2023-06-10T13:56:14;28.60;89.10
9939;DHT22;5008;50.656;7.188;2023-06-10T13:58:40;28.20;87.30
9939;DHT22;5008;50.656;7.188;2023-06-10T14:01:08;27.60;90.00
9939;DHT22;5008;50.656;7.188;2023-06-10T14:03:35;27.40;87.30
9939;DHT22;5008;50.656;7.188;2023-06-10T14:06:02;27.40;90.60
9939;DHT22;5008;50.656;7.188;2023-06-10T14:08:29;27.20;91.10
9939;DHT22;5008;50.656;7.188;2023-06-10T14:10:56;27.10;90.30
9939;DHT22;5008;50.656;7.188;2023-06-10T14:13:25;26.90;90.30
9939;DHT22;5008;50.656;7.188;2023-06-10T14:15:52;26.80;88.80
9939;DHT22;5008;50.656;7.188;2023-06-10T14:18:18;26.90;89.10
9939;DHT22;5008;50.656;7.188;2023-06-10T14:20:45;26.90;90.40
9939;DHT22;5008;50.656;7.188;2023-06-10T14:23:12;26.70;90.90
9939;DHT22;5008;50.656;7.188;2023-06-10T14:25:39;26.60;91.10
9939;DHT22;5008;50.656;7.188;2023-06-10T14:28:06;26.40;89.70
9939;DHT22;5008;50.656;7.188;2023-06-10T14:30:34;26.40;90.50
9939;DHT22;5008;50.656;7.188;2023-06-10T14:33:01;26.40;90.70
9939;DHT22;5008;50.656;7.188;2023-06-10T14:35:28;26.70;86.00
9939;DHT22;5008;50.656;7.188;2023-06-10T14:37:55;26.80;89.20
9939;DHT22;5008;50.656;7.188;2023-06-10T14:40:22;26.80;85.00
9939;DHT22;5008;50.656;7.188;2023-06-10T14:42:50;26.80;85.10
9939;DHT22;5008;50.656;7.188;2023-06-10T14:45:19;26.70;87.50
9939;DHT22;5008;50.656;7.188;2023-06-10T14:47:48;26.50;90.70
9939;DHT22;5008;50.656;7.188;2023-06-10T14:50:14;26.60;89.40
9939;DHT22;5008;50.656;7.188;2023-06-10T14:52:41;26.60;86.70
9939;DHT22;5008;50.656;7.188;2023-06-10T14:55:08;26.80;85.90
9939;DHT22;5008;50.656;7.188;2023-06-10T14:57:35;26.60;87.30
9939;DHT22;5008;50.656;7.188;2023-06-10T15:00:02;26.40;88.80
9939;DHT22;5008;50.656;7.188;2023-06-10T15:02:29;26.40;88.50
9939;DHT22;5008;50.656;7.188;2023-06-10T15:04:58;26.40;85.40
9939;DHT22;5008;50.656;7.188;2023-06-10T15:07:24;26.50;88.50
9939;DHT22;5008;50.656;7.188;2023-06-10T15:09:51;26.60;88.10
9939;DHT22;5008;50.656;7.188;2023-06-10T15:12:18;26.50;87.50
9939;DHT22;5008;50.656;7.188;2023-06-10T15:14:45;26.50;88.90
9939;DHT22;5008;50.656;7.188;2023-06-10T15:17:12;26.40;89.10
9939;DHT22;5008;50.656;7.188;2023-06-10T15:19:39;26.20;90.70
9939;DHT22;5008;50.656;7.188;2023-06-10T15:22:07;26.30;90.80
9939;DHT22;5008;50.656;7.188;2023-06-10T15:24:34;26.40;90.30
9939;DHT22;5008;50.656;7.188;2023-06-10T15:27:01;26.40;90.10
9939;DHT22;5008;50.656;7.188;2023-06-10T15:29:28;26.50;89.40
9939;DHT22;5008;50.656;7.188;2023-06-10T15:31:55;26.50;90.20
9939;DHT22;5008;50.656;7.188;2023-06-10T15:34:22;26.40;89.00
9939;DHT22;5008;50.656;7.188;2023-06-10T15:36:48;26.40;90.70
9939;DHT22;5008;50.656;7.188;2023-06-10T15:39:17;26.40;90.80
9939;DHT22;5008;50.656;7.188;2023-06-10T15:41:44;26.50;90.50
9939;DHT22;5008;50.656;7.188;2023-06-10T15:44:11;26.60;88.20
9939;DHT22;5008;50.656;7.188;2023-06-10T15:46:38;26.70;90.10
9939;DHT22;5008;50.656;7.188;2023-06-10T15:49:05;26.70;89.30
9939;DHT22;5008;50.656;7.188;2023-06-10T15:51:31;26.70;81.90
9939;DHT22;5008;50.656;7.188;2023-06-10T15:53:58;26.80;83.30
9939;DHT22;5008;50.656;7.188;2023-06-10T15:56:26;26.90;84.60
9939;DHT22;5008;50.656;7.188;2023-06-10T15:58:53;27.10;85.10
9939;DHT22;5008;50.656;7.188;2023-06-10T16:01:20;27.30;87.30
9939;DHT22;5008;50.656;7.188;2023-06-10T16:03:47;27.20;90.40
9939;DHT22;5008;50.656;7.188;2023-06-10T16:06:13;27.30;89.00
9939;DHT22;5008;50.656;7.188;2023-06-10T16:08:41;27.20;85.90
9939;DHT22;5008;50.656;7.188;2023-06-10T16:11:07;27.30;90.50
9939;DHT22;5008;50.656;7.188;2023-06-10T16:13:36;27.00;91.20
9939;DHT22;5008;50.656;7.188;2023-06-10T16:16:06;27.00;91.00
9939;DHT22;5008;50.656;7.188;2023-06-10T16:18:33;26.70;88.50
9939;DHT22;5008;50.656;7.188;2023-06-10T16:21:00;26.60;90.80
9939;DHT22;5008;50.656;7.188;2023-06-10T16:23:27;26.60;89.70
9939;DHT22;5008;50.656;7.188;2023-06-10T16:25:53;26.70;88.90
9939;DHT22;5008;50.656;7.188;2023-06-10T16:28:20;26.70;90.50
9939;DHT22;5008;50.656;7.188;2023-06-10T16:30:48;26.50;88.80
9939;DHT22;5008;50.656;7.188;2023-06-10T16:33:15;26.60;90.30
9939;DHT22;5008;50.656;7.188;2023-06-10T16:35:42;26.50;88.40
9939;DHT22;5008;50.656;7.188;2023-06-10T16:38:09;26.90;90.50
9939;DHT22;5008;50.656;7.188;2023-06-10T16:40:36;26.90;87.60
9939;DHT22;5008;50.656;7.188;2023-06-10T16:43:03;27.50;88.30
9939;DHT22;5008;50.656;7.188;2023-06-10T16:45:30;27.80;89.80
9939;DHT22;5008;50.656;7.188;2023-06-10T16:47:58;27.80;89.90
9939;DHT22;5008;50.656;7.188;2023-06-10T16:50:25;27.50;90.90
9939;DHT22;5008;50.656;7.188;2023-06-10T16:52:52;27.10;90.00
9939;DHT22;5008;50.656;7.188;2023-06-10T16:55:32;27.00;90.50
9939;DHT22;5008;50.656;7.188;2023-06-10T16:57:59;26.90;87.10
9939;DHT22;5008;50.656;7.188;2023-06-10T17:00:26;26.80;87.60
9939;DHT22;5008;50.656;7.188;2023-06-10T17:02:53;26.70;87.20
9939;DHT22;5008;50.656;7.188;2023-06-10T17:05:21;26.80;86.20
9939;DHT22;5008;50.656;7.188;2023-06-10T17:07:48;26.60;88.30
9939;DHT22;5008;50.656;7.188;2023-06-10T17:10:15;26.50;88.70
9939;DHT22;5008;50.656;7.188;2023-06-10T17:12:41;26.40;89.70
9939;DHT22;5008;50.656;7.188;2023-06-10T17:15:09;26.40;89.30
9939;DHT22;5008;50.656;7.188;2023-06-10T17:17:35;26.40;89.30
9939;DHT22;5008;50.656;7.188;2023-06-10T17:20:03;26.30;90.00
9939;DHT22;5008;50.656;7.188;2023-06-10T17:22:32;26.20;88.10
9939;DHT22;5008;50.656;7.188;2023-06-10T17:24:58;26.30;88.80
9939;DHT22;5008;50.656;7.188;2023-06-10T17:27:25;26.20;89.50
9939;DHT22;5008;50.656;7.188;2023-06-10T17:29:52;26.20;91.70
9939;DHT22;5008;50.656;7.188;2023-06-10T17:32:19;26.00;89.60
9939;DHT22;5008;50.656;7.188;2023-06-10T17:34:46;26.10;86.10
9939;DHT22;5008;50.656;7.188;2023-06-10T17:37:13;26.20;90.40
9939;DHT22;5008;50.656;7.188;2023-06-10T17:39:41;26.10;86.50
9939;DHT22;5008;50.656;7.188;2023-06-10T17:42:08;26.20;86.70
9939;DHT22;5008;50.656;7.188;2023-06-10T17:44:35;26.20;90.00
9939;DHT22;5008;50.656;7.188;2023-06-10T17:47:02;26.20;90.10
9939;DHT22;5008;50.656;7.188;2023-06-10T17:49:29;26.10;87.00
9939;DHT22;5008;50.656;7.188;2023-06-10T17:51:55;26.00;90.70
9939;DHT22;5008;50.656;7.188;2023-06-10T17:54:22;26.00;85.10
9939;DHT22;5008;50.656;7.188;2023-06-10T17:56:50;26.00;84.20
9939;DHT22;5008;50.656;7.188;2023-06-10T17:59:17;26.00;85.90
9939;DHT22;5008;50.656;7.188;2023-06-10T18:01:44;26.00;85.50
9939;DHT22;5008;50.656;7.188;2023-06-10T18:04:11;26.10;85.30
9939;DHT22;5008;50.656;7.188;2023-06-10T18:06:37;26.20;86.30
9939;DHT22;5008;50.656;7.188;2023-06-10T18:09:04;26.10;85.70
9939;DHT22;5008;50.656;7.188;2023-06-10T18:11:31;26.10;85.60
9939;DHT22;5008;50.656;7.188;2023-06-10T18:14:00;26.00;86.20
9939;DHT22;5008;50.656;7.188;2023-06-10T18:19:28;26.10;87.50
9939;DHT22;5008;50.656;7.188;2023-06-10T18:21:57;26.20;86.20
9939;DHT22;5008;50.656;7.188;2023-06-10T18:24:24;26.30;90.80
9939;DHT22;5008;50.656;7.188;2023-06-10T18:26:50;26.40;88.20
9939;DHT22;5008;50.656;7.188;2023-06-10T18:29:21;26.30;88.90
9939;DHT22;5008;50.656;7.188;2023-06-10T18:31:49;26.30;87.80
9939;DHT22;5008;50.656;7.188;2023-06-10T18:34:15;26.30;87.10
9939;DHT22;5008;50.656;7.188;2023-06-10T18:36:50;26.20;89.90
9939;DHT22;5008;50.656;7.188;2023-06-10T18:39:24;26.10;90.30
9939;DHT22;5008;50.656;7.188;2023-06-10T18:41:51;26.00;91.80
9939;DHT22;5008;50.656;7.188;2023-06-10T18:44:17;25.80;92.10
9939;DHT22;5008;50.656;7.188;2023-06-10T18:46:48;25.70;91.50
9939;DHT22;5008;50.656;7.188;2023-06-10T18:49:14;25.60;93.10
9939;DHT22;5008;50.656;7.188;2023-06-10T18:51:41;25.40;93.40
9939;DHT22;5008;50.656;7.188;2023-06-10T18:54:08;25.30;93.50
9939;DHT22;5008;50.656;7.188;2023-06-10T18:56:46;25.20;94.10
9939;DHT22;5008;50.656;7.188;2023-06-10T18:59:13;25.10;94.20
9939;DHT22;5008;50.656;7.188;2023-06-10T19:01:40;24.90;94.40
9939;DHT22;5008;50.656;7.188;2023-06-10T19:04:08;24.80;94.70
9939;DHT22;5008;50.656;7.188;2023-06-10T19:06:36;24.80;94.90
9939;DHT22;5008;50.656;7.188;2023-06-10T19:09:04;24.70;95.40
9939;DHT22;5008;50.656;7.188;2023-06-10T19:11:31;24.60;95.40
9939;DHT22;5008;50.656;7.188;2023-06-10T19:13:58;24.50;95.40
9939;DHT22;5008;50.656;7.188;2023-06-10T19:16:25;24.40;95.60
9939;DHT22;5008;50.656;7.188;2023-06-10T19:18:52;24.30;95.70
9939;DHT22;5008;50.656;7.188;2023-06-10T19:21:21;24.20;96.00
9939;DHT22;5008;50.656;7.188;2023-06-10T19:23:53;24.10;96.10
9939;DHT22;5008;50.656;7.188;2023-06-10T19:26:20;24.00;96.60
9939;DHT22;5008;50.656;7.188;2023-06-10T19:28:47;23.90;96.70
9939;DHT22;5008;50.656;7.188;2023-06-10T19:31:14;23.80;96.90
9939;DHT22;5008;50.656;7.188;2023-06-10T19:33:41;23.70;96.90
9939;DHT22;5008;50.656;7.188;2023-06-10T19:36:08;23.70;96.90
9939;DHT22;5008;50.656;7.188;2023-06-10T19:38:36;23.60;97.10
9939;DHT22;5008;50.656;7.188;2023-06-10T19:41:03;23.50;97.20
9939;DHT22;5008;50.656;7.188;2023-06-10T19:43:30;23.50;97.40
9939;DHT22;5008;50.656;7.188;2023-06-10T19:45:57;23.40;98.00
9939;DHT22;5008;50.656;7.188;2023-06-10T19:48:24;23.30;98.20
9939;DHT22;5008;50.656;7.188;2023-06-10T19:50:50;23.20;98.70
9939;DHT22;5008;50.656;7.188;2023-06-10T19:53:19;23.10;98.90
9939;DHT22;5008;50.656;7.188;2023-06-10T19:55:48;23.10;99.20